createdAt,value
2022-11-09T00:00:26.311Z,393.75
2022-11-09T00:02:56.807Z,392.48
2022-11-09T00:05:25.182Z,376.30
2022-11-09T00:07:53.565Z,384.27
2022-11-09T00:10:23.213Z,340.35
2022-11-09T00:12:51.704Z,338.40
2022-11-09T00:15:20.083Z,394.33
2022-11-09T00:17:48.578Z,400.65
2022-11-09T00:20:17.147Z,404.17
2022-11-09T00:22:49.497Z,404.63
2022-11-09T00:25:18.279Z,372.90
2022-11-09T00:27:48.040Z,374.80
2022-11-09T00:30:16.656Z,399.83
2022-11-09T00:32:45.324Z,427.20
2022-11-09T00:35:13.651Z,400.08
2022-11-09T00:37:42.147Z,396.25
2022-11-09T00:40:13.216Z,349.58
2022-11-09T00:42:41.670Z,426.20
2022-11-09T00:45:11.863Z,404.95
2022-11-09T00:47:40.241Z,405.23
2022-11-09T00:50:09.621Z,401.50
2022-11-09T00:52:38.436Z,388.77
2022-11-09T00:55:07.540Z,410.55
2022-11-09T00:57:35.938Z,410.67
2022-11-09T01:00:04.529Z,410.65
2022-11-09T01:02:34.237Z,410.55
2022-11-09T01:05:02.565Z,418.55
2022-11-09T01:07:30.968Z,392.02
2022-11-09T01:09:59.376Z,387.17
2022-11-09T01:12:27.685Z,380.02
2022-11-09T01:14:56.004Z,352.85
2022-11-09T01:17:24.634Z,379.50
2022-11-09T01:19:54.415Z,407.77
2022-11-09T01:22:22.884Z,388.50
2022-11-09T01:24:51.219Z,394.25
2022-11-09T01:27:19.561Z,377.45
2022-11-09T01:29:47.947Z,384.42
2022-11-09T01:32:16.373Z,398.50
2022-11-09T01:34:44.929Z,369.17
2022-11-09T01:37:14.792Z,385.88
2022-11-09T01:39:43.185Z,377.00
2022-11-09T01:42:11.498Z,378.10
2022-11-09T01:44:40.221Z,369.27
2022-11-09T01:47:12.225Z,371.42
2022-11-09T01:49:43.435Z,379.10
2022-11-09T01:52:16.983Z,364.42
2022-11-09T01:54:47.841Z,395.07
2022-11-09T01:57:20.622Z,369.95
2022-11-09T01:59:52.159Z,382.15
2022-11-09T02:02:20.693Z,378.70
2022-11-09T02:04:52.995Z,353.48
2022-11-09T02:07:23.540Z,362.42
2022-11-09T02:09:55.805Z,360.33
2022-11-09T02:12:24.803Z,373.83
2022-11-09T02:14:55.742Z,386.98
2022-11-09T02:17:24.628Z,401.70
2022-11-09T02:19:52.955Z,402.02
2022-11-09T02:22:22.768Z,395.73
2022-11-09T02:24:56.028Z,408.98
2022-11-09T02:27:24.879Z,363.77
2022-11-09T02:29:53.789Z,375.95
2022-11-09T02:32:25.849Z,378.30
2022-11-09T02:34:54.212Z,386.08
2022-11-09T02:37:32.658Z,377.88
2022-11-09T02:40:02.594Z,383.63
2022-11-09T02:42:31.130Z,353.02
2022-11-09T02:45:01.064Z,372.48
2022-11-09T02:47:29.690Z,380.85
2022-11-09T02:49:58.357Z,347.00
2022-11-09T02:52:26.761Z,373.27
2022-11-09T02:54:56.512Z,366.83
2022-11-09T02:57:24.945Z,370.67
2022-11-09T02:59:53.209Z,343.65
2022-11-09T03:02:21.580Z,340.00
2022-11-09T03:04:49.956Z,386.20
2022-11-09T03:07:18.374Z,339.83
2022-11-09T03:09:47.128Z,321.25
2022-11-09T03:12:31.771Z,338.77
2022-11-09T03:15:01.719Z,324.20
2022-11-09T03:17:30.319Z,313.45
2022-11-09T03:19:58.719Z,348.25
2022-11-09T03:22:27.202Z,339.60
2022-11-09T03:24:55.742Z,356.13
2022-11-09T03:27:25.808Z,360.50
2022-11-09T03:29:54.253Z,391.15
2022-11-09T03:32:22.700Z,366.05
2022-11-09T03:34:51.602Z,380.95
2022-11-09T03:37:20.039Z,350.65
2022-11-09T03:39:48.486Z,344.67
2022-11-09T03:42:16.791Z,294.63
2022-11-09T03:44:46.592Z,334.08
2022-11-09T03:47:14.953Z,342.98
2022-11-09T03:49:43.291Z,330.05
2022-11-09T03:52:11.794Z,316.45
2022-11-09T03:54:40.203Z,318.08
2022-11-09T03:57:08.659Z,294.33
2022-11-09T03:59:37.131Z,274.52
2022-11-09T04:02:07.103Z,292.73
2022-11-09T04:04:35.611Z,322.20
2022-11-09T04:07:04.108Z,331.10
2022-11-09T04:09:32.826Z,293.83
2022-11-09T04:12:01.253Z,263.73
2022-11-09T04:14:29.621Z,236.70
2022-11-09T04:16:58.006Z,239.82
2022-11-09T04:19:27.801Z,257.45
2022-11-09T04:21:56.119Z,242.15
2022-11-09T04:24:24.463Z,218.80
2022-11-09T04:26:52.912Z,256.63
2022-11-09T04:29:21.369Z,225.00
2022-11-09T04:31:50.092Z,246.32
2022-11-09T04:34:18.832Z,226.02
2022-11-09T04:36:48.557Z,250.60
2022-11-09T04:39:16.937Z,295.73
2022-11-09T04:41:45.245Z,252.63
2022-11-09T04:44:13.548Z,228.13
2022-11-09T04:46:42.641Z,238.73
2022-11-09T04:49:11.079Z,223.52
2022-11-09T04:51:39.422Z,287.55
2022-11-09T04:54:09.242Z,220.90
2022-11-09T04:56:37.604Z,274.88
2022-11-09T04:59:06.040Z,246.13
2022-11-09T05:01:34.348Z,241.57
2022-11-09T05:04:02.768Z,227.95
2022-11-09T05:06:34.188Z,249.80
2022-11-09T05:09:04.650Z,234.35
2022-11-09T05:11:35.170Z,234.65
2022-11-09T05:14:04.100Z,234.45
2022-11-09T05:16:32.612Z,219.45
2022-11-09T05:19:01.006Z,203.70
2022-11-09T05:21:29.305Z,218.25
2022-11-09T05:23:59.705Z,210.57
2022-11-09T05:26:29.779Z,207.95
2022-11-09T05:29:00.315Z,229.45
2022-11-09T05:31:29.748Z,234.93
2022-11-09T05:33:59.317Z,230.80
2022-11-09T05:36:28.896Z,238.02
2022-11-09T05:38:57.702Z,231.10
2022-11-09T05:41:26.150Z,233.35
2022-11-09T05:43:54.760Z,218.75
2022-11-09T05:46:25.164Z,216.45
2022-11-09T05:48:53.537Z,217.80
2022-11-09T05:51:21.887Z,261.27
2022-11-09T05:53:50.205Z,227.80
2022-11-09T05:56:18.972Z,222.07
2022-11-09T05:58:47.282Z,218.38
2022-11-09T06:01:18.616Z,202.45
2022-11-09T06:03:48.284Z,243.60
2022-11-09T06:06:17.586Z,226.32
2022-11-09T06:08:45.981Z,224.75
2022-11-09T06:11:22.844Z,228.27
2022-11-09T06:13:51.858Z,256.58
2022-11-09T06:16:20.340Z,259.60
2022-11-09T06:18:49.946Z,248.05
2022-11-09T06:21:18.413Z,235.40
2022-11-09T06:23:46.889Z,231.05
2022-11-09T06:26:15.391Z,256.60
2022-11-09T06:28:43.935Z,306.52
2022-11-09T06:31:15.230Z,311.02
2022-11-09T06:33:43.712Z,275.45
2022-11-09T06:36:13.887Z,307.45
2022-11-09T06:38:42.607Z,247.55
2022-11-09T06:41:11.888Z,244.57
2022-11-09T06:43:40.456Z,291.85
2022-11-09T06:46:10.835Z,281.75
2022-11-09T06:48:39.648Z,218.68
2022-11-09T06:51:09.036Z,248.82
2022-11-09T06:53:41.286Z,236.20
2022-11-09T06:56:10.214Z,235.45
2022-11-09T06:58:39.465Z,235.75
2022-11-09T07:01:11.393Z,316.38
2022-11-09T07:03:40.379Z,289.42
2022-11-09T07:06:10.272Z,349.60
2022-11-09T07:08:40.451Z,370.60
2022-11-09T07:11:09.887Z,296.42
2022-11-09T07:13:38.527Z,329.40
2022-11-09T07:16:07.598Z,324.77
2022-11-09T07:18:36.018Z,296.70
2022-11-09T07:21:12.833Z,421.73
2022-11-09T07:23:44.271Z,314.70
2022-11-09T07:26:12.779Z,226.35
2022-11-09T07:28:41.278Z,325.67
2022-11-09T07:31:10.297Z,242.10
2022-11-09T07:33:38.696Z,254.98
2022-11-09T07:36:08.017Z,226.32
2022-11-09T07:38:36.467Z,309.48
2022-11-09T07:41:06.461Z,250.77
2022-11-09T07:43:34.916Z,339.67
2022-11-09T07:46:05.699Z,230.57
2022-11-09T07:48:34.270Z,240.80
2022-11-09T07:51:03.076Z,241.77
2022-11-09T07:53:31.631Z,251.50
2022-11-09T07:56:00.953Z,264.92
2022-11-09T07:58:31.298Z,306.92
2022-11-09T08:00:59.742Z,260.58
2022-11-09T08:03:28.324Z,267.20
2022-11-09T08:05:58.673Z,385.63
2022-11-09T08:08:27.259Z,268.98
2022-11-09T08:10:58.297Z,250.25
2022-11-09T08:13:26.919Z,256.70
2022-11-09T08:15:56.999Z,256.23
2022-11-09T08:18:25.497Z,279.35
2022-11-09T08:20:53.979Z,364.38
2022-11-09T08:23:26.997Z,245.77
2022-11-09T08:25:55.460Z,309.13
2022-11-09T08:28:24.103Z,230.30
2022-11-09T08:30:59.230Z,259.10
2022-11-09T08:33:29.032Z,199.32
2022-11-09T08:35:57.632Z,263.73
2022-11-09T08:38:26.211Z,214.45
2022-11-09T08:40:58.722Z,220.65
2022-11-09T08:43:27.769Z,302.08
2022-11-09T08:45:57.463Z,232.77
2022-11-09T08:48:26.216Z,242.32
2022-11-09T08:50:55.901Z,212.88
2022-11-09T08:53:24.950Z,211.27
2022-11-09T08:55:53.667Z,269.33
2022-11-09T08:58:23.072Z,242.80
2022-11-09T09:00:51.674Z,381.45
2022-11-09T09:03:21.417Z,268.17
2022-11-09T09:05:49.760Z,250.55
2022-11-09T09:08:22.034Z,266.98
2022-11-09T09:10:50.900Z,275.05
2022-11-09T09:13:22.467Z,307.13
2022-11-09T09:15:50.908Z,276.00
2022-11-09T09:18:21.270Z,299.88
2022-11-09T09:20:50.188Z,300.95
2022-11-09T09:23:20.592Z,285.17
2022-11-09T09:25:48.941Z,330.30
2022-11-09T09:28:17.649Z,306.88
2022-11-09T09:30:46.221Z,312.92
2022-11-09T09:33:14.545Z,335.75
2022-11-09T09:35:44.484Z,352.90
2022-11-09T09:38:12.903Z,263.90
2022-11-09T09:40:44.737Z,461.80
2022-11-09T09:43:16.522Z,414.83
2022-11-09T09:45:51.600Z,284.45
2022-11-09T09:48:27.170Z,326.58
2022-11-09T09:51:00.941Z,326.92
2022-11-09T09:53:33.779Z,330.10
2022-11-09T09:56:07.555Z,337.90
2022-11-09T09:58:38.001Z,417.30
2022-11-09T10:01:12.136Z,359.95
2022-11-09T10:03:40.780Z,437.38
2022-11-09T10:06:27.699Z,299.80
2022-11-09T10:09:02.936Z,316.58
2022-11-09T10:11:36.288Z,291.73
2022-11-09T10:14:22.158Z,348.40
2022-11-09T10:16:55.805Z,367.60
2022-11-09T10:19:35.382Z,565.47
2022-11-09T10:22:13.107Z,544.38
2022-11-09T10:25:12.216Z,413.33
2022-11-09T10:30:13.351Z,434.90
2022-11-09T10:32:41.985Z,424.70
2022-11-09T10:35:18.594Z,419.52
2022-11-09T10:37:50.175Z,469.42
2022-11-09T10:40:22.733Z,531.88
2022-11-09T10:42:52.800Z,409.50
2022-11-09T10:45:29.461Z,414.95
2022-11-09T10:47:58.168Z,497.70
2022-11-09T10:50:33.584Z,393.65
2022-11-09T10:53:18.067Z,385.45
2022-11-09T10:55:54.751Z,350.92
2022-11-09T10:58:32.763Z,380.23
2022-11-09T11:01:03.581Z,396.25
2022-11-09T11:03:33.414Z,395.77
2022-11-09T11:06:02.855Z,379.60
2022-11-09T11:08:39.294Z,393.90
2022-11-09T11:11:33.795Z,359.88
2022-11-09T11:14:19.936Z,315.13
2022-11-09T11:16:50.794Z,352.90
2022-11-09T11:19:34.771Z,323.88
2022-11-09T11:22:22.742Z,317.77
2022-11-09T11:24:57.189Z,468.35
2022-11-09T11:30:00.634Z,299.25
2022-11-09T11:32:29.168Z,387.02
2022-11-09T11:35:00.770Z,411.83
2022-11-09T11:37:37.916Z,372.23
2022-11-09T11:40:11.604Z,377.65
2022-11-09T11:43:09.284Z,351.80
2022-11-09T11:45:42.004Z,356.10
2022-11-09T11:48:26.150Z,378.05
2022-11-09T11:50:58.960Z,413.42
2022-11-09T11:53:48.516Z,392.15
2022-11-09T11:56:24.447Z,357.75
2022-11-09T11:59:13.947Z,466.27
2022-11-09T12:01:52.205Z,397.65
2022-11-09T12:04:45.443Z,390.50
2022-11-09T12:07:23.539Z,360.88
2022-11-09T12:10:18.144Z,384.50
2022-11-09T12:12:56.733Z,344.20
2022-11-09T12:15:38.246Z,383.13
2022-11-09T12:18:16.275Z,457.73
2022-11-09T12:20:51.486Z,419.05
2022-11-09T12:23:31.761Z,348.95
2022-11-09T12:26:13.383Z,346.23
2022-11-09T12:29:03.702Z,459.27
2022-11-09T12:31:48.953Z,339.17
2022-11-09T12:34:22.453Z,385.75
2022-11-09T12:36:54.042Z,353.67
2022-11-09T12:39:27.010Z,388.52
2022-11-09T12:42:00.225Z,532.92
2022-11-09T12:44:33.280Z,332.02
2022-11-09T12:47:04.193Z,386.80
2022-11-09T12:49:36.736Z,360.90
2022-11-09T12:52:06.266Z,392.98
2022-11-09T12:54:35.875Z,381.30
2022-11-09T12:57:07.607Z,341.88
2022-11-09T12:59:49.850Z,412.05
2022-11-09T13:02:25.487Z,396.05
2022-11-09T13:04:59.028Z,475.50
2022-11-09T13:07:47.030Z,370.90
2022-11-09T13:10:27.432Z,378.50
2022-11-09T13:13:04.754Z,387.10
2022-11-09T13:15:35.492Z,367.23
2022-11-09T13:18:06.296Z,388.05
2022-11-09T13:20:59.204Z,402.02
2022-11-09T13:23:59.069Z,393.08
2022-11-09T13:26:41.694Z,386.83
2022-11-09T13:29:22.454Z,455.13
2022-11-09T13:32:25.779Z,410.58
2022-11-09T13:34:55.456Z,355.52
2022-11-09T13:37:50.874Z,373.23
2022-11-09T13:40:41.860Z,404.80
2022-11-09T13:43:22.321Z,407.88
2022-11-09T13:45:53.060Z,378.58
2022-11-09T13:48:49.806Z,398.77
2022-11-09T13:51:20.679Z,369.13
2022-11-09T13:53:59.787Z,416.35
2022-11-09T13:56:33.217Z,406.45
2022-11-09T13:59:06.798Z,370.27
2022-11-09T14:01:38.523Z,513.85
2022-11-09T14:04:15.327Z,335.75
2022-11-09T14:06:43.889Z,353.85
2022-11-09T14:09:17.652Z,333.98
2022-11-09T14:12:04.923Z,422.05
2022-11-09T14:15:00.087Z,315.88
2022-11-09T14:20:11.909Z,549.00
2022-11-09T14:22:42.067Z,521.60
2022-11-09T14:25:18.069Z,306.20
2022-11-09T14:27:50.588Z,363.85
2022-11-09T14:30:24.169Z,291.45
2022-11-09T14:32:55.227Z,345.83
2022-11-09T14:35:27.668Z,421.05
2022-11-09T14:37:57.257Z,355.90
2022-11-09T14:40:27.744Z,395.85
2022-11-09T14:42:59.677Z,307.52
2022-11-09T14:45:28.717Z,478.38
2022-11-09T14:47:58.949Z,336.17
2022-11-09T14:50:30.475Z,300.23
2022-11-09T14:52:59.584Z,267.77
2022-11-09T14:55:29.016Z,316.20
2022-11-09T14:57:57.793Z,389.30
2022-11-09T15:00:31.539Z,308.73
2022-11-09T15:03:00.244Z,253.02
2022-11-09T15:05:39.760Z,343.10
2022-11-09T15:08:16.889Z,302.67
2022-11-09T15:10:50.852Z,351.15
2022-11-09T15:13:20.155Z,299.23
2022-11-09T15:15:52.697Z,327.30
2022-11-09T15:18:26.777Z,334.35
2022-11-09T15:21:16.520Z,305.15
2022-11-09T15:23:46.038Z,266.92
2022-11-09T15:26:30.318Z,266.92
2022-11-09T15:28:58.611Z,297.80
2022-11-09T15:31:28.385Z,257.33
2022-11-09T15:33:58.182Z,252.55
2022-11-09T15:36:30.692Z,264.92
2022-11-09T15:39:08.986Z,317.85
2022-11-09T15:41:38.524Z,255.88
2022-11-09T15:44:07.429Z,311.10
2022-11-09T15:46:38.761Z,287.92
2022-11-09T15:49:19.606Z,395.38
2022-11-09T15:51:49.479Z,296.02
2022-11-09T15:54:18.122Z,268.90
2022-11-09T15:56:47.049Z,302.08
2022-11-09T15:59:20.398Z,295.08
2022-11-09T16:01:48.975Z,309.15
2022-11-09T16:04:17.316Z,271.70
2022-11-09T16:06:46.967Z,280.65
2022-11-09T16:09:19.559Z,314.67
2022-11-09T16:11:50.764Z,367.13
2022-11-09T16:14:21.520Z,358.25
2022-11-09T16:16:50.328Z,308.92
2022-11-09T16:19:18.867Z,315.20
2022-11-09T16:21:47.356Z,317.52
2022-11-09T16:24:17.803Z,335.52
2022-11-09T16:26:46.428Z,256.70
2022-11-09T16:29:15.116Z,434.73
2022-11-09T16:31:52.148Z,275.00
2022-11-09T16:34:21.082Z,347.95
2022-11-09T16:36:56.429Z,292.15
2022-11-09T16:39:27.588Z,282.23
2022-11-09T16:41:56.647Z,468.45
2022-11-09T16:44:26.209Z,326.75
2022-11-09T16:46:54.836Z,351.92
2022-11-09T16:49:23.348Z,310.73
2022-11-09T16:51:51.768Z,302.85
2022-11-09T16:54:27.371Z,304.92
2022-11-09T16:56:58.547Z,279.48
2022-11-09T16:59:27.805Z,280.88
2022-11-09T17:01:57.742Z,268.35
2022-11-09T17:04:26.450Z,329.50
2022-11-09T17:06:55.082Z,291.50
2022-11-09T17:09:23.845Z,324.67
2022-11-09T17:11:54.515Z,253.18
2022-11-09T17:14:23.692Z,265.20
2022-11-09T17:19:55.042Z,348.55
2022-11-09T17:22:23.727Z,290.92
2022-11-09T17:24:52.442Z,427.20
2022-11-09T17:27:22.533Z,481.00
2022-11-09T17:29:51.185Z,299.42
2022-11-09T17:32:24.896Z,401.75
2022-11-09T17:34:53.872Z,331.35
2022-11-09T17:37:22.750Z,372.25
2022-11-09T17:39:53.442Z,289.40
2022-11-09T17:42:31.383Z,481.23
2022-11-09T17:45:00.662Z,320.38
2022-11-09T17:47:31.078Z,307.60
2022-11-09T17:49:59.996Z,296.70
2022-11-09T17:52:28.503Z,326.15
2022-11-09T17:54:57.143Z,295.23
2022-11-09T17:57:29.483Z,340.17
2022-11-09T18:00:01.401Z,321.00
2022-11-09T18:02:32.229Z,257.83
2022-11-09T18:08:02.952Z,284.45
2022-11-09T18:10:48.642Z,324.58
2022-11-09T18:13:19.230Z,282.05
2022-11-09T18:15:54.316Z,353.08
2022-11-09T18:18:55.824Z,323.42
2022-11-09T18:21:25.583Z,289.33
2022-11-09T18:24:43.556Z,349.90
2022-11-09T18:27:31.414Z,285.65
2022-11-09T18:58:32.501Z,282.08
2022-11-09T19:01:02.333Z,247.40
2022-11-09T19:01:37.511Z,266.50
2022-11-09T19:03:30.892Z,274.45
2022-11-09T19:05:59.514Z,303.30
2022-11-09T19:08:45.650Z,370.27
2022-11-09T19:11:16.074Z,338.77
2022-11-09T19:13:44.658Z,271.90
2022-11-09T19:16:14.424Z,223.82
2022-11-09T19:18:42.929Z,235.32
2022-11-09T19:21:29.315Z,232.25
2022-11-09T19:23:59.372Z,249.35
2022-11-09T19:26:29.369Z,193.05
2022-11-09T19:28:57.971Z,336.65
2022-11-09T19:31:27.155Z,248.07
2022-11-09T19:33:55.707Z,207.30
2022-11-09T19:36:30.607Z,294.38
2022-11-09T19:38:59.942Z,242.27
2022-11-09T19:41:29.786Z,211.57
2022-11-09T19:43:59.328Z,216.48
2022-11-09T19:46:30.448Z,216.02
2022-11-09T19:48:59.423Z,196.65
2022-11-09T19:51:29.394Z,231.32
2022-11-09T19:53:59.023Z,265.35
2022-11-09T19:56:31.211Z,245.40
2022-11-09T19:59:01.159Z,215.60
2022-11-09T20:01:30.379Z,200.30
2022-11-09T20:04:00.296Z,207.43
2022-11-09T20:06:29.530Z,217.30
2022-11-09T20:08:59.451Z,296.42
2022-11-09T20:11:47.501Z,216.68
2022-11-09T20:14:16.463Z,201.65
2022-11-09T20:16:46.832Z,214.50
2022-11-09T20:19:15.536Z,214.10
2022-11-09T20:21:44.489Z,259.20
2022-11-09T20:24:14.379Z,204.90
2022-11-09T20:26:44.389Z,262.25
2022-11-09T20:29:13.030Z,201.88
2022-11-09T20:31:42.096Z,224.40
2022-11-09T20:34:10.548Z,278.52
2022-11-09T20:36:38.954Z,205.10
2022-11-09T20:39:07.413Z,229.23
2022-11-09T20:41:36.440Z,221.95
2022-11-09T20:44:06.347Z,211.43
2022-11-09T20:46:36.742Z,201.70
2022-11-09T20:49:05.849Z,211.25
2022-11-09T20:51:36.693Z,211.63
2022-11-09T20:54:08.104Z,200.35
2022-11-09T20:56:37.923Z,231.02
2022-11-09T20:59:07.982Z,211.32
2022-11-09T21:01:36.462Z,232.63
2022-11-09T21:04:05.537Z,197.00
2022-11-09T21:06:34.159Z,219.25
2022-11-09T21:09:04.636Z,217.57
2022-11-09T21:11:35.978Z,214.32
2022-11-09T21:14:04.492Z,214.85
2022-11-09T21:16:34.344Z,223.18
2022-11-09T21:19:03.134Z,215.85
2022-11-09T21:21:36.223Z,221.88
2022-11-09T21:24:25.065Z,261.53
2022-11-09T21:27:11.244Z,219.13
2022-11-09T21:29:51.713Z,242.35
2022-11-09T21:32:23.222Z,247.05
2022-11-09T21:34:52.789Z,221.07
2022-11-09T21:37:21.246Z,223.80
2022-11-09T21:39:49.744Z,210.30
2022-11-09T21:42:18.203Z,209.35
2022-11-09T21:44:46.690Z,219.77
2022-11-09T21:47:15.333Z,208.18
2022-11-09T21:49:45.588Z,216.30
2022-11-09T21:52:14.056Z,225.05
2022-11-09T21:54:42.514Z,224.23
2022-11-09T21:57:10.939Z,215.02
2022-11-09T21:59:39.468Z,236.15
2022-11-09T22:02:09.521Z,212.95
2022-11-09T22:04:38.019Z,251.52
2022-11-09T22:07:07.938Z,207.32
2022-11-09T22:10:06.030Z,214.80
2022-11-09T22:12:38.940Z,227.13
2022-11-09T22:15:35.055Z,214.13
2022-11-09T22:18:03.490Z,214.82
2022-11-09T22:21:00.936Z,206.77
2022-11-09T22:23:30.953Z,237.63
2022-11-09T22:26:02.385Z,218.48
2022-11-09T22:28:30.703Z,236.95
2022-11-09T22:31:02.153Z,205.90
2022-11-09T22:33:30.935Z,221.57
2022-11-09T22:36:01.229Z,207.00
2022-11-09T22:38:32.322Z,223.95
2022-11-09T22:41:02.505Z,226.30
2022-11-09T22:43:33.236Z,253.48
2022-11-09T22:46:05.097Z,222.02
2022-11-09T22:48:33.756Z,226.18
2022-11-09T22:51:02.696Z,246.68
2022-11-09T22:53:33.025Z,224.45
2022-11-09T22:56:02.546Z,206.68
2022-11-09T22:58:31.867Z,216.15
2022-11-09T23:01:07.049Z,194.48
2022-11-09T23:03:35.838Z,211.10
2022-11-09T23:06:05.505Z,218.30
2022-11-09T23:08:38.165Z,205.57
2022-11-09T23:11:07.129Z,197.77
2022-11-09T23:13:35.769Z,197.65
2022-11-09T23:16:06.769Z,229.98
2022-11-09T23:19:00.939Z,215.57
2022-11-09T23:21:31.470Z,231.55
2022-11-09T23:24:02.820Z,225.32
2022-11-09T23:26:30.616Z,198.82
2022-11-09T23:28:59.380Z,208.98
2022-11-09T23:31:27.875Z,210.15
2022-11-09T23:33:57.697Z,206.82
2022-11-09T23:36:27.464Z,218.38
2022-11-09T23:38:55.828Z,248.88
2022-11-09T23:41:25.784Z,211.23
2022-11-09T23:43:56.799Z,200.13
2022-11-09T23:46:25.273Z,208.18
2022-11-09T23:48:53.813Z,207.98
2022-11-09T23:51:23.283Z,215.25
2022-11-09T23:53:51.836Z,213.48
2022-11-09T23:56:21.173Z,205.05
2022-11-09T23:58:51.943Z,193.63
